»·PEaware :: N787FL KSAN-L77

N787FL :: KSAN-L77

FLIGHT INFORMATION

Flight Status: Arrived
Operator: Privately registered:
United States
More flights under this callsign
Pilot: Luis B. (14232)
Aircraft: Unknown
(DA62)
More flights by this aircraft type
Origin: KSAN San Diego Intl-Lindbergh
United States
Destination: L77 Chiriaco Summit
United States
More flights between these airports :: More routes between these airports
Route: +JLI V460 HENOM
File this flight plan on PilotEdge
Remarks:
Altitude:
(Current/Filed)
9,000ft
Speed:
(Current/Filed)
170kts
Departed: 21-Feb-19 05:36 PM
Arrived: 21-Feb-19 06:19 PM
Distance/Time
Traveled:
93nm/0:43
Distance/Time
To Go:
Arrived

Flight Plot

Page will automatically refresh every two minutes.

Flight plan parsing failed; only flown route is shown


Map Options




Map Legend


Flown Route
Filed Route
Departure Airport
Arrival Airport
Navaid (VOR, NDB)
Fix

Horizontal Profiles

Position Reports

Time Latitude Longitude Heading Altitude Ground
Speed
21-Feb-19 17:14 32.732517 -117.177103 194 18ft 0kts
21-Feb-19 17:15 32.732517 -117.177103 194 18ft 0kts
21-Feb-19 17:15 32.732517 -117.177103 194 18ft 0kts
21-Feb-19 17:16 32.732517 -117.177103 194 18ft 0kts
21-Feb-19 17:18 32.732517 -117.177103 194 18ft 0kts
21-Feb-19 17:19 32.732517 -117.177103 194 18ft 0kts
21-Feb-19 17:19 32.732517 -117.177103 194 18ft 0kts
21-Feb-19 17:20 32.732517 -117.177103 194 18ft 0kts
21-Feb-19 17:21 32.732517 -117.177103 194 18ft 0kts
21-Feb-19 17:22 32.732517 -117.177103 194 18ft 0kts
21-Feb-19 17:23 32.732517 -117.177103 194 18ft 0kts
21-Feb-19 17:24 32.732517 -117.177103 194 18ft 0kts
21-Feb-19 17:25 32.732517 -117.177103 194 18ft 0kts
21-Feb-19 17:26 32.732517 -117.177103 194 18ft 0kts
21-Feb-19 17:27 32.732517 -117.177103 194 18ft 0kts
21-Feb-19 17:28 32.732517 -117.177103 194 18ft 0kts
21-Feb-19 17:29 32.732445 -117.177124 193 18ft 1kts
21-Feb-19 17:30 32.731458 -117.176682 145 18ft 6kts
21-Feb-19 17:31 32.730966 -117.175519 138 18ft 0kts
21-Feb-19 17:32 32.730966 -117.175519 138 18ft 0kts
21-Feb-19 17:33 32.730966 -117.175519 138 18ft 0kts
21-Feb-19 17:34 32.730885 -117.175433 138 18ft 0kts
21-Feb-19 17:35 32.732364 -117.184283 283 53ft 85kts
21-Feb-19 17:36 32.744574 -117.206112 321 992ft 90kts
21-Feb-19 17:37 32.768618 -117.223512 321 1640ft 117kts
21-Feb-19 17:38 32.796049 -117.244470 321 2632ft 113kts
21-Feb-19 17:39 32.822306 -117.265065 321 3596ft 114kts
21-Feb-19 17:40 32.843735 -117.243025 80 4532ft 143kts
21-Feb-19 17:41 32.848069 -117.195576 82 5438ft 146kts
21-Feb-19 17:42 32.852600 -117.147074 79 6348ft 147kts
21-Feb-19 17:43 32.872948 -117.105609 51 7234ft 145kts
21-Feb-19 17:44 32.895036 -117.064509 52 8116ft 148kts
21-Feb-19 17:45 32.917123 -117.022304 52 8957ft 153kts
21-Feb-19 17:46 32.942882 -116.972751 54 9004ft 188kts
21-Feb-19 17:47 32.971070 -116.917991 54 9000ft 195kts
21-Feb-19 17:48 32.999489 -116.862589 54 8996ft 191kts
21-Feb-19 17:49 33.026671 -116.809537 54 8998ft 183kts
21-Feb-19 17:50 33.053229 -116.757683 54 9000ft 182kts
21-Feb-19 17:51 33.079660 -116.706013 54 9000ft 181kts
21-Feb-19 17:52 33.105993 -116.654508 54 9001ft 180kts
21-Feb-19 17:53 33.125629 -116.616182 54 9001ft 181kts
21-Feb-19 17:54 33.151877 -116.564922 51 9000ft 180kts
21-Feb-19 17:55 33.181850 -116.517389 50 9001ft 179kts
21-Feb-19 17:56 33.210578 -116.468751 50 9001ft 178kts
21-Feb-19 17:57 33.239276 -116.420126 50 9001ft 178kts
21-Feb-19 17:58 33.267944 -116.371550 50 9001ft 177kts
21-Feb-19 17:59 33.296030 -116.323440 51 8998ft 176kts
21-Feb-19 18:00 33.324172 -116.275195 51 8999ft 175kts
21-Feb-19 18:01 33.351945 -116.227818 50 8999ft 174kts
21-Feb-19 18:02 33.379994 -116.179990 50 8990ft 174kts
21-Feb-19 18:03 33.407888 -116.132431 51 8987ft 173kts
21-Feb-19 18:04 33.435584 -116.085115 50 8980ft 173kts
21-Feb-19 18:05 33.462683 -116.038739 50 8524ft 166kts
21-Feb-19 18:06 33.488950 -115.993853 51 7717ft 162kts
21-Feb-19 18:07 33.514676 -115.949713 51 6989ft 157kts
21-Feb-19 18:08 33.536868 -115.911345 52 6975ft 122kts
21-Feb-19 18:09 33.555425 -115.879300 44 6798ft 119kts
21-Feb-19 18:10 33.574795 -115.846127 50 6545ft 121kts
21-Feb-19 18:11 33.596260 -115.809312 50 5870ft 142kts
21-Feb-19 18:12 33.620270 -115.768171 52 5014ft 155kts
21-Feb-19 18:13 33.643495 -115.728032 51 4959ft 139kts
21-Feb-19 18:14 33.653666 -115.692098 70 4782ft 105kts
21-Feb-19 18:15 33.663570 -115.660206 23 4209ft 98kts
21-Feb-19 18:16 33.671471 -115.679675 299 3089ft 82kts
21-Feb-19 18:17 33.665301 -115.707363 259 1694ft 69kts
21-Feb-19 18:18 33.663469 -115.718432 258 1694ft 14kts
21-Feb-19 18:19 33.661959 -115.719453 77 1694ft 5kts
21-Feb-19 18:20 33.662061 -115.718657 166 1694ft 0kts

Navigation Log

Ident Type
Flight plan parsing failed, navigation log unavailable